Time;durP1;ratioP1;P1;durP2;ratioP2;P2;SDS_P1;SDS_P2;PMS_P1;PMS_P2;Temp;Humidity;BMP_temperature;BMP_pressure;BME280_temperature;BME280_humidity;BME280_pressure;Samples;Min_cycle;Max_cycle;Signal;HPM_P1;HPM_P2
2023/01/12 00:01:35;;;;;;;;;;;;;;;27.12;48.60;97216.87;618736;229;67061;-74
2023/01/12 00:04:03;;;;;;;;;;;;;;;27.13;48.74;97209.56;618838;229;64226;-74
2023/01/12 00:06:31;;;;;;;;;;;;;;;27.12;48.59;97205.25;618804;229;62979;-74
2023/01/12 00:08:59;;;;;;;;;;;;;;;27.11;50.30;97196.37;618829;229;64507;-74
2023/01/12 00:11:26;;;;;;;;;;;;;;;27.11;49.65;97200.97;618798;229;64790;-74
2023/01/12 00:13:53;;;;;;;;;;;;;;;27.10;48.09;97196.69;618856;229;64982;-74
2023/01/12 00:16:36;;;;;;;;;;;;;;;27.10;48.07;97202.88;618797;229;64528;-74
2023/01/12 00:19:09;;;;;;;;;;;;;;;27.09;47.52;97203.17;618692;229;64492;-75
2023/01/12 00:21:45;;;;;;;;;;;;;;;27.08;47.68;97207.77;618705;228;67820;-75
2023/01/12 00:24:12;;;;;;;;;;;;;;;27.07;47.56;97208.89;618808;229;64613;-75
2023/01/12 00:26:40;;;;;;;;;;;;;;;27.05;49.07;97208.39;618838;229;64045;-75
2023/01/12 00:29:07;;;;;;;;;;;;;;;27.05;48.35;97203.00;618933;229;62968;-75
2023/01/12 00:31:35;;;;;;;;;;;;;;;27.05;49.09;97202.20;618832;227;64180;-74
2023/01/12 00:34:02;;;;;;;;;;;;;;;27.03;48.57;97210.59;618435;229;64242;-74
2023/01/12 00:36:29;;;;;;;;;;;;;;;27.03;48.32;97213.28;617721;229;62768;-74
2023/01/12 00:38:57;;;;;;;;;;;;;;;27.01;47.99;97213.61;617700;229;64569;-74
2023/01/12 00:46:56;;;;;;;;;;;;;;;27.00;48.12;97214.70;617740;229;66626;-74
2023/01/12 00:49:23;;;;;;;;;;;;;;;26.99;48.78;97220.41;617694;229;66392;-74
2023/01/12 00:51:50;;;;;;;;;;;;;;;26.99;47.30;97228.50;617722;229;64901;-74
2023/01/12 00:54:18;;;;;;;;;;;;;;;26.97;48.30;97225.30;617710;229;66906;-74
2023/01/12 00:56:45;;;;;;;;;;;;;;;26.96;47.57;97231.81;617719;229;66684;-74
2023/01/12 00:59:13;;;;;;;;;;;;;;;26.96;48.11;97234.51;617764;229;62757;-74
2023/01/12 01:01:40;;;;;;;;;;;;;;;26.96;48.03;97239.91;617396;229;66764;-74
2023/01/12 01:04:08;;;;;;;;;;;;;;;26.95;48.56;97235.59;617683;229;66704;-74
2023/01/12 01:06:38;;;;;;;;;;;;;;;26.94;48.08;97234.01;617695;229;64949;-74
2023/01/12 01:09:06;;;;;;;;;;;;;;;26.93;48.96;97237.81;617712;229;66763;-75
2023/01/12 01:11:34;;;;;;;;;;;;;;;26.93;47.65;97229.73;617770;229;64633;-73
2023/01/12 01:14:02;;;;;;;;;;;;;;;26.92;47.81;97226.20;617718;229;62763;-73
2023/01/12 01:16:30;;;;;;;;;;;;;;;26.91;48.34;97226.53;617684;229;64386;-73
2023/01/12 01:18:58;;;;;;;;;;;;;;;26.89;47.79;97224.13;617721;229;64123;-73
2023/01/12 01:21:25;;;;;;;;;;;;;;;26.89;48.13;97218.73;617711;229;65109;-73
2023/01/12 01:23:53;;;;;;;;;;;;;;;26.88;47.52;97219.05;617764;229;66825;-73
2023/01/12 01:26:22;;;;;;;;;;;;;;;26.89;49.31;97215.24;617669;229;67805;-73
2023/01/12 01:28:50;;;;;;;;;;;;;;;26.87;47.63;97222.83;617691;229;63738;-73
2023/01/12 01:31:21;;;;;;;;;;;;;;;26.87;48.47;97217.44;617682;229;64546;-73
2023/01/12 01:33:49;;;;;;;;;;;;;;;26.86;49.55;97219.34;617668;229;65518;-72
2023/01/12 01:36:17;;;;;;;;;;;;;;;26.85;48.71;97222.36;617679;229;62864;-72
2023/01/12 01:38:45;;;;;;;;;;;;;;;26.83;47.81;97221.86;617751;229;64613;-72
2023/01/12 01:41:20;;;;;;;;;;;;;;;26.83;47.28;97221.86;617697;229;64762;-73
2023/01/12 01:43:49;;;;;;;;;;;;;;;26.82;48.40;97215.67;617412;229;64864;-74
2023/01/12 01:46:18;;;;;;;;;;;;;;;26.81;47.97;97218.66;617661;229;64361;-73
2023/01/12 01:48:46;;;;;;;;;;;;;;;26.81;47.65;97224.05;617501;228;64768;-73
2023/01/12 01:51:15;;;;;;;;;;;;;;;26.80;48.65;97212.48;617717;229;62563;-73
2023/01/12 01:53:43;;;;;;;;;;;;;;;26.78;48.19;97218.16;617674;229;65103;-73
2023/01/12 01:56:13;;;;;;;;;;;;;;;26.78;48.39;97220.86;617671;229;66809;-73
2023/01/12 01:58:42;;;;;;;;;;;;;;;26.78;48.31;97214.67;617688;229;65216;-74
2023/01/12 02:01:10;;;;;;;;;;;;;;;26.75;47.75;97210.69;617408;229;67126;-73
2023/01/12 02:03:38;;;;;;;;;;;;;;;26.75;48.33;97207.20;617729;229;66860;-73
2023/01/12 02:06:06;;;;;;;;;;;;;;;26.73;48.46;97204.79;617701;229;64845;-73
2023/01/12 02:08:52;;;;;;;;;;;;;;;26.73;48.39;97212.09;617681;229;64845;-73
2023/01/12 02:16:59;;;;;;;;;;;;;;;26.71;48.78;97212.41;617622;229;67136;-73
2023/01/12 02:19:34;;;;;;;;;;;;;;;26.71;47.86;97212.41;617574;228;66678;-73
2023/01/12 02:22:03;;;;;;;;;;;;;;;26.69;47.36;97211.91;617676;229;65125;-73
2023/01/12 02:24:41;;;;;;;;;;;;;;;26.67;48.43;97214.09;617522;228;64854;-73
2023/01/12 02:27:22;;;;;;;;;;;;;;;26.67;49.37;97221.39;617651;229;64428;-74
2023/01/12 02:30:12;;;;;;;;;;;;;;;26.66;48.74;97223.30;617619;228;62836;-73
2023/01/12 02:32:43;;;;;;;;;;;;;;;26.65;48.98;97216.30;617393;228;64880;-74
2023/01/12 02:35:18;;;;;;;;;;;;;;;26.63;48.35;97215.82;617459;228;66611;-73
2023/01/12 02:37:50;;;;;;;;;;;;;;;26.62;47.93;97216.91;617355;228;62900;-75
2023/01/12 02:40:19;;;;;;;;;;;;;;;26.62;48.38;97211.52;617624;228;64768;-76
2023/01/12 02:43:00;;;;;;;;;;;;;;;26.61;48.22;97218.02;617691;229;67107;-75
2023/01/12 02:45:46;;;;;;;;;;;;;;;26.61;48.72;97212.63;617681;229;65084;-75
2023/01/12 02:48:18;;;;;;;;;;;;;;;26.59;49.35;97211.33;617672;229;67022;-74
2023/01/12 02:50:50;;;;;;;;;;;;;;;26.58;49.21;97205.14;617623;229;66822;-74
2023/01/12 02:53:19;;;;;;;;;;;;;;;26.58;48.33;97207.84;617685;229;65121;-75
2023/01/12 02:55:47;;;;;;;;;;;;;;;26.56;48.29;97202.73;617593;228;64877;-75
2023/01/12 02:58:16;;;;;;;;;;;;;;;26.55;48.38;97195.77;617719;229;64866;-74
2023/01/12 03:00:47;;;;;;;;;;;;;;;26.54;49.10;97199.55;617692;229;65113;-75
2023/01/12 03:03:15;;;;;;;;;;;;;;;26.53;49.05;97194.47;617669;229;66897;-75
2023/01/12 03:05:43;;;;;;;;;;;;;;;26.53;49.22;97191.78;617693;229;66934;-75
2023/01/12 03:08:12;;;;;;;;;;;;;;;26.52;47.80;97188.29;617663;229;65185;-74
2023/01/12 03:10:41;;;;;;;;;;;;;;;26.52;48.32;97190.98;617729;229;67261;-75
2023/01/12 03:13:10;;;;;;;;;;;;;;;26.50;48.90;97185.06;617555;228;66936;-75
2023/01/12 03:15:39;;;;;;;;;;;;;;;26.50;48.54;97185.06;617653;229;65617;-74
2023/01/12 03:18:08;;;;;;;;;;;;;;;26.49;48.37;97188.87;617642;229;67037;-75
2023/01/12 03:20:37;;;;;;;;;;;;;;;26.48;48.83;97184.56;617367;229;66902;-75
2023/01/12 03:23:06;;;;;;;;;;;;;;;26.48;48.97;97189.16;617675;229;66090;-75
2023/01/12 03:25:35;;;;;;;;;;;;;;;26.47;48.72;97187.58;617641;228;64908;-75
2023/01/12 03:28:04;;;;;;;;;;;;;;;26.46;48.44;97186.75;617664;229;66978;-75
2023/01/12 03:30:39;;;;;;;;;;;;;;;26.45;49.39;97189.77;617674;229;64909;-75
2023/01/12 03:33:07;;;;;;;;;;;;;;;26.45;48.58;97184.38;617653;229;67201;-75
2023/01/12 03:35:39;;;;;;;;;;;;;;;26.44;47.95;97177.41;618463;229;67604;-75
2023/01/12 03:38:11;;;;;;;;;;;;;;;26.43;49.14;97178.48;618780;229;64918;-75
2023/01/12 03:40:49;;;;;;;;;;;;;;;26.42;48.38;97176.91;617529;228;68004;-75
2023/01/12 03:43:24;;;;;;;;;;;;;;;26.41;49.13;97172.59;617675;229;64822;-75
2023/01/12 03:45:53;;;;;;;;;;;;;;;26.40;49.34;97166.41;618436;228;64770;-75
2023/01/12 03:48:31;;;;;;;;;;;;;;;26.40;48.15;97165.63;618733;229;67136;-74
2023/01/12 03:51:00;;;;;;;;;;;;;;;26.39;48.74;97164.03;618776;229;64499;-75
2023/01/12 03:53:29;;;;;;;;;;;;;;;26.38;48.68;97181.28;618762;227;64872;-75
2023/01/12 03:55:58;;;;;;;;;;;;;;;26.36;49.58;97173.52;618847;229;66992;-75
2023/01/12 03:58:26;;;;;;;;;;;;;;;26.35;47.61;97170.03;618619;229;67233;-75
2023/01/12 04:00:54;;;;;;;;;;;;;;;26.34;48.06;97171.11;618780;229;65091;-73
2023/01/12 04:03:23;;;;;;;;;;;;;;;26.33;47.86;97164.14;618746;229;66933;-73
2023/01/12 04:05:50;;;;;;;;;;;;;;;26.33;48.30;97168.73;618775;229;66933;-73
2023/01/12 04:08:18;;;;;;;;;;;;;;;26.32;49.33;97165.22;618858;229;64935;-73
2023/01/12 04:10:45;;;;;;;;;;;;;;;26.31;49.78;97174.41;618795;229;66995;-73
2023/01/12 04:13:13;;;;;;;;;;;;;;;26.30;50.30;97180.91;618817;229;66867;-73
2023/01/12 04:15:43;;;;;;;;;;;;;;;26.29;49.86;97181.99;618798;229;65109;-73
2023/01/12 04:18:11;;;;;;;;;;;;;;;26.28;48.73;97185.00;618813;229;64641;-74
2023/01/12 04:20:39;;;;;;;;;;;;;;;26.28;49.41;97185.00;618867;229;66850;-74
2023/01/12 04:23:07;;;;;;;;;;;;;;;26.27;49.20;97180.70;618767;229;64949;-74
2023/01/12 04:25:34;;;;;;;;;;;;;;;26.27;48.38;97178.00;618789;229;67253;-74
2023/01/12 04:28:03;;;;;;;;;;;;;;;26.26;50.13;97176.42;618774;229;66920;-74
2023/01/12 04:30:32;;;;;;;;;;;;;;;26.24;49.77;97174.02;618781;229;65109;-74
2023/01/12 04:33:00;;;;;;;;;;;;;;;26.23;49.02;97174.33;618832;229;67056;-74
2023/01/12 04:35:27;;;;;;;;;;;;;;;26.22;49.07;97165.45;617773;229;66913;-74
2023/01/12 04:37:55;;;;;;;;;;;;;;;26.21;49.00;97169.23;617710;229;65200;-74
2023/01/12 04:40:23;;;;;;;;;;;;;;;26.20;49.01;97183.81;617744;229;66768;-74
2023/01/12 04:43:03;;;;;;;;;;;;;;;26.20;49.41;97188.41;617726;229;66729;-74
2023/01/12 04:45:32;;;;;;;;;;;;;;;26.20;48.69;97191.89;617733;229;64857;-74
2023/01/12 04:48:04;;;;;;;;;;;;;;;26.18;50.85;97202.16;617744;229;66864;-73
2023/01/12 04:50:31;;;;;;;;;;;;;;;26.18;49.66;97207.55;617707;229;64749;-73
2023/01/12 04:53:00;;;;;;;;;;;;;;;26.17;51.31;97215.95;617696;229;62815;-74
2023/01/12 04:55:28;;;;;;;;;;;;;;;26.14;49.46;97211.95;617696;229;64546;-75
2023/01/12 04:57:56;;;;;;;;;;;;;;;26.16;51.03;97214.33;617724;229;64391;-74
2023/01/12 05:00:23;;;;;;;;;;;;;;;26.14;48.21;97217.34;617761;229;64908;-75
2023/01/12 05:02:54;;;;;;;;;;;;;;;26.13;49.34;97221.91;617706;229;66707;-75
2023/01/12 05:05:21;;;;;;;;;;;;;;;26.12;51.28;97216.84;617715;229;66527;-75
2023/01/12 05:10:34;;;;;;;;;;;;;;;26.10;49.05;97221.72;617690;229;67450;-74
2023/01/12 05:13:02;;;;;;;;;;;;;;;26.09;48.57;97218.23;617687;229;67206;-75
2023/01/12 05:15:29;;;;;;;;;;;;;;;26.09;49.36;97225.52;617727;229;64871;-74
2023/01/12 05:17:57;;;;;;;;;;;;;;;26.08;49.35;97229.29;617672;229;64920;-74
2023/01/12 05:20:24;;;;;;;;;;;;;;;26.07;49.53;97233.88;617686;229;64991;-74
2023/01/12 05:22:52;;;;;;;;;;;;;;;26.06;49.89;97220.73;617712;229;62747;-74
2023/01/12 05:25:20;;;;;;;;;;;;;;;26.06;49.27;97226.12;617665;229;67067;-74
2023/01/12 05:27:48;;;;;;;;;;;;;;;26.04;48.01;97237.18;617763;229;66864;-74
2023/01/12 05:30:15;;;;;;;;;;;;;;;26.05;49.30;97235.27;617706;229;64859;-73
2023/01/12 05:32:43;;;;;;;;;;;;;;;26.03;49.69;97227.52;617643;229;64577;-74
2023/01/12 05:35:11;;;;;;;;;;;;;;;26.03;49.68;97232.90;618502;229;66899;-74
2023/01/12 05:37:41;;;;;;;;;;;;;;;26.03;49.23;97232.11;618761;229;64840;-74
2023/01/12 05:40:09;;;;;;;;;;;;;;;26.03;50.43;97234.80;618784;229;67500;-74
2023/01/12 05:45:22;;;;;;;;;;;;;;;26.01;49.23;97235.09;618790;229;64950;-73
2023/01/12 05:48:00;;;;;;;;;;;;;;;26.01;49.97;97235.09;618776;229;64895;-73
2023/01/12 05:50:28;;;;;;;;;;;;;;;26.00;49.05;97232.67;618806;229;66920;-73
2023/01/12 05:52:57;;;;;;;;;;;;;;;25.99;48.85;97237.27;615838;228;46315;-74
2023/01/12 05:55:25;;;;;;;;;;;;;;;25.99;49.91;97242.66;618810;229;64893;-73
2023/01/12 05:57:52;;;;;;;;;;;;;;;25.98;50.34;97232.99;618823;229;64562;-73
2023/01/12 06:00:20;;;;;;;;;;;;;;;25.99;49.35;97241.86;618780;229;64951;-73
2023/01/12 06:02:47;;;;;;;;;;;;;;;25.98;51.73;97249.15;618780;229;67277;-73
2023/01/12 06:05:15;;;;;;;;;;;;;;;25.97;49.21;97244.84;618792;229;66850;-74
2023/01/12 06:07:42;;;;;;;;;;;;;;;25.98;49.12;97240.28;618784;229;62821;-74
2023/01/12 06:10:10;;;;;;;;;;;;;;;25.97;49.87;97244.84;618811;229;67057;-74
2023/01/12 06:15:23;;;;;;;;;;;;;;;25.97;50.05;97244.05;618805;229;64956;-74
2023/01/12 06:17:51;;;;;;;;;;;;;;;25.97;50.43;97244.05;618778;229;67092;-74
2023/01/12 06:20:18;;;;;;;;;;;;;;;25.97;50.52;97244.84;618807;229;66666;-74
2023/01/12 06:22:46;;;;;;;;;;;;;;;25.96;49.75;97247.84;618749;229;64872;-74
2023/01/12 06:25:13;;;;;;;;;;;;;;;25.96;48.91;97247.84;618837;229;67064;-74
2023/01/12 06:27:41;;;;;;;;;;;;;;;25.96;49.08;97254.03;618774;229;67293;-76
2023/01/12 06:30:10;;;;;;;;;;;;;;;25.96;48.73;97253.23;618758;229;64964;-74
2023/01/12 06:32:40;;;;;;;;;;;;;;;25.96;49.46;97250.54;618786;229;67338;-74
2023/01/12 06:35:07;;;;;;;;;;;;;;;25.96;50.25;97253.23;617897;229;66839;-74
2023/01/12 06:37:35;;;;;;;;;;;;;;;25.95;50.46;97257.03;617743;229;64848;-75
2023/01/12 06:40:02;;;;;;;;;;;;;;;25.95;49.43;97254.34;617661;229;66970;-75
2023/01/12 06:42:30;;;;;;;;;;;;;;;25.95;50.04;97262.42;617681;229;64851;-74
2023/01/12 06:44:59;;;;;;;;;;;;;;;25.94;48.87;97263.50;617690;229;64974;-74
2023/01/12 06:47:29;;;;;;;;;;;;;;;25.93;50.33;97254.63;617721;229;46908;-75
2023/01/12 06:49:57;;;;;;;;;;;;;;;25.95;49.24;97265.11;617726;229;66905;-75
2023/01/12 06:52:26;;;;;;;;;;;;;;;25.93;48.04;97259.22;617636;229;64906;-75
2023/01/12 06:54:54;;;;;;;;;;;;;;;25.93;49.53;97262.70;617700;229;68252;-75
2023/01/12 06:57:21;;;;;;;;;;;;;;;25.94;49.30;97268.88;617657;229;64697;-74
2023/01/12 06:59:48;;;;;;;;;;;;;;;25.93;48.69;97269.98;617663;229;65113;-71
2023/01/12 07:02:16;;;;;;;;;;;;;;;25.93;48.04;97280.76;617703;229;67140;-76
2023/01/12 07:04:44;;;;;;;;;;;;;;;25.91;46.83;97281.83;617120;229;67048;-75
2023/01/12 07:07:12;;;;;;;;;;;;;;;25.91;49.45;97278.34;617639;229;62739;-74
2023/01/12 07:09:39;;;;;;;;;;;;;;;25.90;49.23;97288.33;617692;229;67204;-68
2023/01/12 07:12:07;;;;;;;;;;;;;;;25.91;48.79;97284.53;617527;229;66963;-73
2023/01/12 07:14:34;;;;;;;;;;;;;;;25.91;47.43;97279.14;617676;229;65029;-76
2023/01/12 07:17:03;;;;;;;;;;;;;;;25.90;49.31;97282.94;623021;227;64881;-72
2023/01/12 07:19:30;;;;;;;;;;;;;;;25.89;48.89;97284.05;624657;227;66932;-74
2023/01/12 07:21:58;;;;;;;;;;;;;;;25.89;48.84;97280.53;624708;227;64839;-66
2023/01/12 07:24:25;;;;;;;;;;;;;;;25.88;48.89;97292.41;624736;227;64883;-68
2023/01/12 07:26:53;;;;;;;;;;;;;;;25.85;50.11;97293.80;624628;227;64849;-67
2023/01/12 07:29:20;;;;;;;;;;;;;;;25.84;48.97;97291.41;624746;227;62895;-67
2023/01/12 07:31:48;;;;;;;;;;;;;;;25.83;48.51;97297.84;624736;227;67182;-69
2023/01/12 07:34:16;;;;;;;;;;;;;;;25.82;49.28;97294.36;624629;226;64703;-67
2023/01/12 07:36:43;;;;;;;;;;;;;;;25.82;47.37;97297.05;624734;227;62866;-68
2023/01/12 07:39:11;;;;;;;;;;;;;;;25.82;47.26;97297.05;624691;227;64976;-67
2023/01/12 07:44:25;;;;;;;;;;;;;;;25.82;46.72;97302.44;624825;227;65141;-67
2023/01/12 07:46:52;;;;;;;;;;;;;;;25.83;49.55;97304.05;624748;227;67239;-67
2023/01/12 07:49:20;;;;;;;;;;;;;;;25.83;49.83;97305.92;624731;227;66807;-67
2023/01/12 07:51:47;;;;;;;;;;;;;;;25.82;46.80;97307.82;624779;227;65040;-67
2023/01/12 07:54:14;;;;;;;;;;;;;;;25.82;47.93;97313.20;624715;227;67241;-67
2023/01/12 07:56:44;;;;;;;;;;;;;;;25.82;48.66;97310.52;624789;227;67062;-67
2023/01/12 07:59:12;;;;;;;;;;;;;;;25.82;48.31;97313.20;624747;227;64999;-71
2023/01/12 08:01:39;;;;;;;;;;;;;;;25.82;48.15;97310.52;624729;227;66816;-69
2023/01/12 08:04:07;;;;;;;;;;;;;;;25.83;49.61;97320.20;624804;227;66840;-68
2023/01/12 08:06:35;;;;;;;;;;;;;;;25.82;47.51;97313.20;624726;227;63063;-71
2023/01/12 08:09:02;;;;;;;;;;;;;;;25.84;47.63;97315.64;624672;227;65426;-71
2023/01/12 08:11:30;;;;;;;;;;;;;;;25.83;47.68;97320.20;624777;227;64750;-70
2023/01/12 08:13:57;;;;;;;;;;;;;;;25.84;48.74;97324.52;624781;227;62740;-69
2023/01/12 08:16:26;;;;;;;;;;;;;;;25.84;48.23;97324.52;624731;227;67256;-67
2023/01/12 08:18:56;;;;;;;;;;;;;;;25.85;48.09;97328.80;624702;226;64920;-69
2023/01/12 08:21:25;;;;;;;;;;;;;;;25.87;47.69;97329.31;624751;227;65025;-68
2023/01/12 08:23:56;;;;;;;;;;;;;;;25.85;48.19;97331.48;624762;227;67256;-69
2023/01/12 08:26:27;;;;;;;;;;;;;;;25.87;48.99;97336.59;624875;226;47870;-70
2023/01/12 08:28:56;;;;;;;;;;;;;;;25.87;49.53;97333.90;624559;226;65259;-69
2023/01/12 08:31:25;;;;;;;;;;;;;;;25.86;48.71;97341.19;624732;227;64915;-69
2023/01/12 08:33:54;;;;;;;;;;;;;;;25.87;50.17;97340.08;624684;226;67149;-69
2023/01/12 08:36:22;;;;;;;;;;;;;;;25.86;49.97;97341.19;624824;227;65185;-69
2023/01/12 08:38:49;;;;;;;;;;;;;;;25.88;48.87;97351.64;624670;227;67114;-69
2023/01/12 08:41:32;;;;;;;;;;;;;;;25.88;48.78;97341.66;624766;227;66871;-69
2023/01/12 08:44:10;;;;;;;;;;;;;;;25.89;48.53;97340.59;624752;227;64817;-69
2023/01/12 08:46:39;;;;;;;;;;;;;;;25.90;48.36;97341.38;624747;227;65249;-70
2023/01/12 08:49:10;;;;;;;;;;;;;;;25.90;49.66;97341.38;624794;227;66527;-69
2023/01/12 08:51:41;;;;;;;;;;;;;;;25.91;50.04;97343.77;624799;227;65045;-70
2023/01/12 08:54:10;;;;;;;;;;;;;;;25.92;51.15;97344.59;624740;227;64734;-69
2023/01/12 08:56:37;;;;;;;;;;;;;;;25.92;50.81;97336.51;624789;227;64861;-71
2023/01/12 08:59:05;;;;;;;;;;;;;;;25.94;50.87;97336.98;624651;227;62996;-69
2023/01/12 09:01:33;;;;;;;;;;;;;;;25.95;51.14;97343.99;624764;227;66886;-70
2023/01/12 09:04:00;;;;;;;;;;;;;;;25.97;49.85;97349.06;624757;227;66802;-70
2023/01/12 09:06:29;;;;;;;;;;;;;;;25.98;50.85;97347.99;624722;227;65046;-69
2023/01/12 09:08:58;;;;;;;;;;;;;;;26.00;48.95;97345.78;624747;227;66933;-69
2023/01/12 09:11:26;;;;;;;;;;;;;;;26.00;49.74;97341.22;624707;227;66871;-69
2023/01/12 09:13:55;;;;;;;;;;;;;;;26.03;51.64;97350.60;624731;227;62852;-68
2023/01/12 09:16:22;;;;;;;;;;;;;;;26.03;50.77;97342.52;624753;227;66903;-69
2023/01/12 09:18:50;;;;;;;;;;;;;;;26.06;51.26;97344.62;624778;227;66980;-68
2023/01/12 09:21:19;;;;;;;;;;;;;;;26.06;52.11;97341.92;624689;227;65076;-68
2023/01/12 09:23:48;;;;;;;;;;;;;;;26.05;46.87;97334.92;624565;226;67400;-70
2023/01/12 09:26:17;;;;;;;;;;;;;;;26.05;49.47;97335.72;624737;227;67060;-70
2023/01/12 09:28:45;;;;;;;;;;;;;;;26.03;43.63;97332.55;624708;227;62952;-69
2023/01/12 09:31:14;;;;;;;;;;;;;;;26.12;48.85;97333.45;624778;227;64899;-69
2023/01/12 09:33:42;;;;;;;;;;;;;;;26.16;50.93;97325.56;624504;226;67017;-68
2023/01/12 09:36:11;;;;;;;;;;;;;;;26.19;49.19;97327.69;624701;227;65196;-69
2023/01/12 09:38:39;;;;;;;;;;;;;;;26.23;49.86;97327.88;624733;227;65693;-69
2023/01/12 09:41:11;;;;;;;;;;;;;;;26.26;49.21;97330.77;624687;227;67254;-69
2023/01/12 09:49:16;;;;;;;;;;;;;;;26.34;48.12;97323.90;624729;227;67101;-69
2023/01/12 09:51:51;;;;;;;;;;;;;;;26.38;47.80;97324.89;624733;227;65090;-69
2023/01/12 09:54:18;;;;;;;;;;;;;;;26.42;48.95;97322.41;624677;226;67260;-68
2023/01/12 09:56:51;;;;;;;;;;;;;;;26.43;49.08;97315.91;624706;227;66971;-69
2023/01/12 09:59:24;;;;;;;;;;;;;;;26.44;49.15;97309.45;624561;226;65051;-69
2023/01/12 10:01:53;;;;;;;;;;;;;;;26.46;47.88;97315.31;624640;226;67180;-66
2023/01/12 10:04:21;;;;;;;;;;;;;;;26.48;47.90;97307.73;624730;227;66728;-68
2023/01/12 10:06:49;;;;;;;;;;;;;;;26.51;48.48;97309.86;624741;227;65003;-68
2023/01/12 10:09:18;;;;;;;;;;;;;;;26.53;48.95;97302.28;624703;227;68115;-69
2023/01/12 10:11:53;;;;;;;;;;;;;;;26.53;47.38;97294.98;624643;227;67324;-67
2023/01/12 10:14:22;;;;;;;;;;;;;;;26.55;48.00;97298.19;624644;226;62877;-67
2023/01/12 10:16:51;;;;;;;;;;;;;;;26.58;48.14;97299.48;624748;227;64901;-67
2023/01/12 10:19:26;;;;;;;;;;;;;;;26.60;47.96;97297.30;624734;227;64822;-68
2023/01/12 10:21:54;;;;;;;;;;;;;;;26.62;48.15;97296.98;624729;227;64925;-67
2023/01/12 10:24:23;;;;;;;;;;;;;;;26.63;47.13;97287.78;624645;227;67167;-69
2023/01/12 10:26:52;;;;;;;;;;;;;;;26.64;47.99;97287.48;624721;227;64886;-66
2023/01/12 10:29:21;;;;;;;;;;;;;;;26.64;47.39;97284.00;624689;226;65272;-66
2023/01/12 10:31:48;;;;;;;;;;;;;;;26.67;47.79;97278.80;624765;227;66916;-66
2023/01/12 10:34:17;;;;;;;;;;;;;;;26.68;47.92;97275.02;624657;226;67168;-66
2023/01/12 10:36:48;;;;;;;;;;;;;;;26.71;47.36;97278.98;624676;227;63040;-67
2023/01/12 10:39:28;;;;;;;;;;;;;;;26.73;46.67;97276.79;624645;227;68295;-69
2023/01/12 10:45:12;;;;;;;;;;;;;;;26.74;48.20;97273.02;624686;227;63204;-66
2023/01/12 10:47:39;;;;;;;;;;;;;;;26.76;47.34;97271.61;624728;227;67211;-65
2023/01/12 10:50:20;;;;;;;;;;;;;;;26.76;47.39;97271.61;624756;227;67027;-64
2023/01/12 10:52:49;;;;;;;;;;;;;;;26.77;47.31;97267.80;624667;227;65206;-64
2023/01/12 10:55:18;;;;;;;;;;;;;;;26.76;47.18;97266.22;624740;227;65774;-65
2023/01/12 10:57:47;;;;;;;;;;;;;;;26.77;47.06;97265.11;624687;227;66992;-64
2023/01/12 11:00:23;;;;;;;;;;;;;;;26.78;46.85;97264.00;624675;227;65036;-66
2023/01/12 11:02:50;;;;;;;;;;;;;;;26.81;46.84;97259.90;624692;227;67175;-66
2023/01/12 11:05:39;;;;;;;;;;;;;;;26.83;47.30;97259.61;624716;227;67050;-65
2023/01/12 11:08:23;;;;;;;;;;;;;;;26.83;46.95;97256.91;624393;226;65289;-65
2023/01/12 11:10:51;;;;;;;;;;;;;;;26.84;47.18;97250.41;624726;227;67825;-66
2023/01/12 11:13:20;;;;;;;;;;;;;;;26.84;47.21;97253.90;624706;227;66890;-63
2023/01/12 11:15:52;;;;;;;;;;;;;;;26.85;47.34;97252.81;623702;227;65030;-67
2023/01/12 11:18:30;;;;;;;;;;;;;;;26.83;47.04;97248.83;624487;226;67306;-67
2023/01/12 11:21:11;;;;;;;;;;;;;;;26.82;47.48;97252.60;624187;227;64654;-67
2023/01/12 11:23:40;;;;;;;;;;;;;;;26.80;46.77;97250.22;624790;227;63073;-67
2023/01/12 11:26:21;;;;;;;;;;;;;;;26.78;47.02;97255.91;624704;226;67227;-66
2023/01/12 11:28:53;;;;;;;;;;;;;;;26.79;46.38;97254.00;624573;226;65773;-66
2023/01/12 11:31:25;;;;;;;;;;;;;;;26.79;46.92;97256.70;624758;227;64979;-66
2023/01/12 11:34:00;;;;;;;;;;;;;;;26.79;47.31;97254.83;624704;226;67083;-66
2023/01/12 11:36:30;;;;;;;;;;;;;;;26.79;46.68;97256.70;624656;226;65509;-64
2023/01/12 11:39:07;;;;;;;;;;;;;;;26.79;46.54;97245.91;624748;226;44707;-65
2023/01/12 11:41:36;;;;;;;;;;;;;;;26.78;47.09;97253.21;624705;227;64970;-65
2023/01/12 11:44:14;;;;;;;;;;;;;;;26.79;47.69;97249.44;624692;227;64954;-64
2023/01/12 11:46:46;;;;;;;;;;;;;;;26.79;47.11;97254.83;624699;226;65029;-65
2023/01/12 11:49:33;;;;;;;;;;;;;;;26.80;46.87;97244.83;624716;227;64675;-63
2023/01/12 11:52:01;;;;;;;;;;;;;;;26.80;46.71;97244.83;624700;227;67071;-63
2023/01/12 11:54:30;;;;;;;;;;;;;;;26.80;47.69;97242.14;624707;227;64839;-63
2023/01/12 11:57:03;;;;;;;;;;;;;;;26.81;46.87;97248.32;624713;227;67311;-63
2023/01/12 11:59:35;;;;;;;;;;;;;;;26.81;47.35;97241.02;624761;227;67026;-63
2023/01/12 12:02:04;;;;;;;;;;;;;;;26.82;47.48;97247.20;624730;227;65054;-62
2023/01/12 12:04:49;;;;;;;;;;;;;;;26.82;47.52;97247.20;624075;227;65264;-63
2023/01/12 12:07:18;;;;;;;;;;;;;;;26.82;47.74;97248.03;624768;227;64977;-65
2023/01/12 12:09:50;;;;;;;;;;;;;;;26.84;46.13;97243.11;624509;226;62907;-63
2023/01/12 12:12:32;;;;;;;;;;;;;;;26.83;47.05;97244.22;623969;227;67226;-64
2023/01/12 12:15:07;;;;;;;;;;;;;;;26.84;47.41;97251.20;624438;226;67009;-63
2023/01/12 12:17:36;;;;;;;;;;;;;;;26.81;47.12;97257.20;624417;226;62927;-64
2023/01/12 12:20:05;;;;;;;;;;;;;;;26.78;46.70;97255.91;624565;226;65084;-64
2023/01/12 12:22:34;;;;;;;;;;;;;;;26.77;47.34;97250.84;624543;226;64857;-65
2023/01/12 12:25:03;;;;;;;;;;;;;;;26.75;48.25;97253.82;624621;227;62895;-64
2023/01/12 12:27:38;;;;;;;;;;;;;;;26.74;47.61;97256.84;624778;227;65066;-64
2023/01/12 12:30:13;;;;;;;;;;;;;;;26.72;48.42;97243.64;624744;227;66844;-65
2023/01/12 12:32:45;;;;;;;;;;;;;;;26.72;48.03;97254.43;624703;227;62887;-65
2023/01/12 12:35:30;;;;;;;;;;;;;;;26.73;48.42;97247.13;624179;226;67333;-64
2023/01/12 12:38:11;;;;;;;;;;;;;;;26.71;49.48;97250.15;624798;227;66832;-63
2023/01/12 12:46:10;;;;;;;;;;;;;;;26.71;48.81;97241.23;624686;227;67454;-64
2023/01/12 12:48:51;;;;;;;;;;;;;;;26.71;49.59;97244.76;624645;226;63017;-65
2023/01/12 12:51:21;;;;;;;;;;;;;;;26.71;49.25;97236.67;624471;226;68388;-66
2023/01/12 12:53:49;;;;;;;;;;;;;;;26.70;48.03;97235.05;624623;227;64889;-65
2023/01/12 12:56:18;;;;;;;;;;;;;;;26.70;48.22;97235.05;624679;227;65024;-65
2023/01/12 12:58:47;;;;;;;;;;;;;;;26.70;48.68;97242.35;624675;227;67238;-68
2023/01/12 13:01:23;;;;;;;;;;;;;;;26.70;49.11;97243.14;624680;227;66793;-65
2023/01/12 13:03:51;;;;;;;;;;;;;;;26.70;49.19;97245.84;624677;227;64982;-66
2023/01/12 13:06:20;;;;;;;;;;;;;;;26.71;49.74;97241.23;622919;227;64501;-65
2023/01/12 13:08:49;;;;;;;;;;;;;;;26.71;49.42;97246.63;623415;227;65467;-65
2023/01/12 13:11:17;;;;;;;;;;;;;;;26.69;46.20;97243.47;620198;227;65019;-64
2023/01/12 13:13:59;;;;;;;;;;;;;;;26.67;48.06;97237.57;617003;229;67390;-63
2023/01/12 13:16:31;;;;;;;;;;;;;;;26.65;47.71;97245.16;617042;229;68160;-65
2023/01/12 13:19:00;;;;;;;;;;;;;;;26.65;48.73;97248.64;617672;229;64970;-65
2023/01/12 13:21:32;;;;;;;;;;;;;;;26.64;45.71;97246.27;617540;229;66934;-70
2023/01/12 13:24:07;;;;;;;;;;;;;;;26.68;45.28;97242.67;617489;229;66883;-67
2023/01/12 13:26:38;;;;;;;;;;;;;;;26.70;47.28;97251.23;617631;229;63061;-71
2023/01/12 13:29:25;;;;;;;;;;;;;;;26.72;47.25;97248.25;617605;229;67309;-69
2023/01/12 13:31:54;;;;;;;;;;;;;;;26.71;47.93;97250.15;617492;229;67078;-69
2023/01/12 13:34:35;;;;;;;;;;;;;;;26.73;48.49;97237.14;617834;229;64887;-68
2023/01/12 13:37:21;;;;;;;;;;;;;;;26.75;49.64;97245.73;618360;229;67039;-68
2023/01/12 13:40:02;;;;;;;;;;;;;;;26.76;48.02;97239.26;618724;229;64949;-69